Time;durP1;ratioP1;P1;durP2;ratioP2;P2;SDS_P1;SDS_P2;PMS_P1;PMS_P2;Temp;Humidity;BMP_temperature;BMP_pressure;BME280_temperature;BME280_humidity;BME280_pressure;Samples;Min_cycle;Max_cycle;Signal;HPM_P1;HPM_P2
2024/04/11 00:01:05;;;;;;;19.40;7.40;;;;;;;-147.86;100.00;26570.14;105826;1256;65701;-46
2024/04/11 00:03:34;;;;;;;19.00;8.00;;;;;;;-147.86;100.00;26685.95;105917;1255;71520;-52
2024/04/11 00:06:01;;;;;;;13.80;7.70;;;;;;;-147.86;100.00;26909.79;105895;1254;61110;-46
2024/04/11 00:08:29;;;;;;;17.00;7.70;;;;;;;-147.86;100.00;27247.89;105904;1254;61290;-46
2024/04/11 00:10:56;;;;;;;18.10;7.40;;;;;;;-147.86;100.00;27697.57;105955;1256;74689;-50
2024/04/11 00:13:23;;;;;;;18.50;7.20;;;;;;;-147.86;100.00;28215.96;105834;1254;65482;-45
2024/04/11 00:15:53;;;;;;;10.40;6.80;;;;;;;-147.86;100.00;28680.57;105716;1254;72692;-47
2024/04/11 00:18:21;;;;;;;15.90;7.10;;;;;;;-147.86;100.00;28911.15;105686;1254;61753;-47
2024/04/11 00:20:48;;;;;;;12.00;7.00;;;;;;;-147.86;100.00;29153.83;105736;1255;61346;-52
2024/04/11 00:23:15;;;;;;;10.90;6.40;;;;;;;-147.86;100.00;29467.54;105670;1254;72177;-49
2024/04/11 00:25:42;;;;;;;17.60;6.80;;;;;;;-147.86;100.00;29807.82;105668;1254;65252;-51
2024/04/11 00:28:11;;;;;;;21.60;7.70;;;;;;;-147.86;100.00;30112.22;105700;1255;72690;-50
2024/04/11 00:30:38;;;;;;;20.90;8.50;;;;;;;-147.86;100.00;30509.54;105720;1254;61192;-48
2024/04/11 00:33:05;;;;;;;9.90;7.70;;;;;;;-147.86;100.00;31031.03;105703;1254;61260;-48
2024/04/11 00:35:32;;;;;;;14.10;7.40;;;;;;;-147.86;100.00;31472.17;105663;1257;74596;-47
2024/04/11 00:37:59;;;;;;;15.40;7.50;;;;;;;-147.86;100.00;31903.20;105655;1254;65530;-47
2024/04/11 00:40:27;;;;;;;19.10;6.20;;;;;;;-147.86;100.00;32257.35;105624;1257;72976;-47
2024/04/11 00:42:55;;;;;;;13.90;7.20;;;;;;;-147.86;100.00;32490.08;105680;1254;62090;-48
2024/04/11 00:45:22;;;;;;;12.00;7.00;;;;;;;-147.86;100.00;32667.77;105669;1259;60387;-45
2024/04/11 00:47:50;;;;;;;16.00;7.20;;;;;;;-147.86;100.00;32927.09;105675;1257;74640;-51
2024/04/11 00:50:20;;;;;;;18.60;7.00;;;;;;;-147.86;100.00;33207.92;105689;1254;65419;-48
2024/04/11 00:52:47;;;;;;;14.60;7.40;;;;;;;-147.86;100.00;33616.48;105663;1254;72690;-45
2024/04/11 00:55:14;;;;;;;18.80;7.30;;;;;;;-147.86;100.00;33876.64;105670;1254;61792;-48
2024/04/11 00:57:41;;;;;;;14.10;7.00;;;;;;;-147.86;100.00;34118.45;105585;1254;61267;-47
2024/04/11 01:00:10;;;;;;;10.70;6.90;;;;;;;-147.86;100.00;34397.02;105681;1255;74703;-49
2024/04/11 01:02:38;;;;;;;12.10;7.00;;;;;;;-147.86;100.00;34691.23;105696;1258;65435;-48
2024/04/11 01:05:06;;;;;;;15.10;7.00;;;;;;;-147.86;100.00;35201.94;105641;1257;72525;-46
2024/04/11 01:07:33;;;;;;;17.40;8.10;;;;;;;-147.86;100.00;35680.68;105645;1254;61985;-49
2024/04/11 01:10:00;;;;;;;13.70;7.70;;;;;;;-147.86;100.00;36138.36;105634;1253;61311;-49
2024/04/11 01:12:27;;;;;;;16.00;7.40;;;;;;;-147.86;100.00;36527.69;105731;1255;74596;-46
2024/04/11 01:14:55;;;;;;;13.40;7.70;;;;;;;-147.86;100.00;36904.16;105640;1255;64597;-48
2024/04/11 01:17:22;;;;;;;17.60;7.60;;;;;;;-147.86;100.00;37240.78;105702;1254;71442;-50
2024/04/11 01:19:49;;;;;;;12.50;7.90;;;;;;;-147.86;100.00;37531.29;105674;1257;61781;-48
2024/04/11 01:22:18;;;;;;;11.30;7.70;;;;;;;-147.86;100.00;37810.48;105610;1254;61339;-47
2024/04/11 01:24:45;;;;;;;23.30;7.10;;;;;;;-147.86;100.00;38178.86;105666;1257;73542;-46
2024/04/11 01:27:14;;;;;;;12.80;6.80;;;;;;;-147.86;100.00;38538.66;105686;1257;63162;-46
2024/04/11 01:29:41;;;;;;;22.30;8.00;;;;;;;-147.86;100.00;38841.40;105653;1257;71287;-48
2024/04/11 01:32:08;;;;;;;10.60;7.40;;;;;;;-147.86;100.00;39133.19;105676;1254;62545;-46
2024/04/11 01:34:35;;;;;;;11.80;7.00;;;;;;;-147.86;100.00;39418.37;105627;1254;61263;-44
2024/04/11 01:37:02;;;;;;;17.30;7.50;;;;;;;-147.86;100.00;39742.69;105703;1253;74539;-47
2024/04/11 01:39:30;;;;;;;19.70;7.50;;;;;;;-147.86;100.00;40092.86;105670;1254;65280;-46
2024/04/11 01:41:57;;;;;;;11.80;7.40;;;;;;;-147.86;100.00;40451.27;105660;1257;71235;-49
2024/04/11 01:44:25;;;;;;;15.40;7.30;;;;;;;-147.86;100.00;40807.76;105740;1254;61941;-45
2024/04/11 01:46:52;;;;;;;19.90;7.90;;;;;;;-147.86;100.00;41150.20;105703;1254;61215;-48
2024/04/11 01:49:19;;;;;;;8.80;7.20;;;;;;;-147.86;100.00;41516.54;105671;1254;74364;-47
2024/04/11 01:51:46;;;;;;;14.60;6.80;;;;;;;-147.86;100.00;41881.35;105669;1254;65477;-49
2024/04/11 01:54:13;;;;;;;13.90;7.00;;;;;;;-147.86;100.00;42130.71;105667;1257;72973;-46
2024/04/11 01:56:41;;;;;;;10.80;7.40;;;;;;;-147.86;100.00;42359.33;105707;1254;61830;-46
2024/04/11 01:59:08;;;;;;;16.70;7.60;;;;;;;-147.86;100.00;42593.06;105696;1257;61116;-49
2024/04/11 02:01:37;;;;;;;25.00;7.80;;;;;;;-147.86;100.00;42920.77;105687;1254;74434;-47
2024/04/11 02:04:05;;;;;;;14.30;6.70;;;;;;;-147.86;100.00;43216.79;105673;1254;64614;-47
2024/04/11 02:06:34;;;;;;;12.00;7.10;;;;;;;-147.86;100.00;43509.71;105651;1255;72658;-46
2024/04/11 02:09:05;;;;;;;17.10;7.90;;;;;;;-147.86;100.00;43765.43;105666;1254;61639;-46
2024/04/11 02:11:33;;;;;;;8.80;7.60;;;;;;;-147.86;100.00;43949.90;105683;1257;61234;-48
2024/04/11 02:14:01;;;;;;;19.10;6.70;;;;;;;-147.86;100.00;44228.76;105691;1254;73257;-47
2024/04/11 02:16:34;;;;;;;11.50;7.30;;;;;;;-147.86;100.00;44545.25;105726;1254;64860;-47
2024/04/11 02:19:06;;;;;;;11.10;7.30;;;;;;;-147.86;100.00;44849.23;105686;1254;72596;-43
2024/04/11 02:21:34;;;;;;;8.80;6.90;;;;;;;-147.86;100.00;45198.68;105689;1254;61719;-49
2024/04/11 02:24:01;;;;;;;9.70;7.10;;;;;;;-147.86;100.00;45535.61;105709;1254;61234;-51
2024/04/11 02:26:32;;;;;;;13.40;7.50;;;;;;;-147.86;100.00;45829.87;105691;1257;74489;-46
2024/04/11 02:28:59;;;;;;;21.70;8.50;;;;;;;-147.86;100.00;46024.63;105559;1254;65448;-47
2024/04/11 02:31:26;;;;;;;11.70;8.20;;;;;;;-147.86;100.00;46310.29;105439;1258;72647;-46
2024/04/11 02:33:57;;;;;;;14.70;7.50;;;;;;;-147.86;100.00;46548.57;105611;1254;61964;-49
2024/04/11 02:36:29;;;;;;;9.80;7.30;;;;;;;-147.86;100.00;46699.45;105706;1258;61144;-50
2024/04/11 02:38:57;;;;;;;21.50;7.40;;;;;;;-147.86;100.00;46843.68;105726;1257;74607;-44
2024/04/11 02:41:24;;;;;;;9.60;7.00;;;;;;;-147.86;100.00;47023.59;105665;1257;64450;-45
2024/04/11 02:43:51;;;;;;;17.20;6.80;;;;;;;-147.86;100.00;47146.66;105701;1254;72413;-49
2024/04/11 02:46:18;;;;;;;11.10;7.20;;;;;;;-147.86;100.00;47270.92;105617;1254;61893;-49
2024/04/11 02:48:45;;;;;;;9.90;7.00;;;;;;;-147.86;100.00;47422.62;105532;1254;61334;-48
2024/04/11 02:51:13;;;;;;;13.00;6.80;;;;;;;-147.86;100.00;47564.13;105721;1254;74623;-47
2024/04/11 02:53:40;;;;;;;15.40;7.40;;;;;;;-147.86;100.00;47762.10;105669;1254;65370;-49
2024/04/11 02:56:07;;;;;;;11.30;6.50;;;;;;;-147.86;100.00;48050.25;105695;1257;72661;-45
2024/04/11 02:58:34;;;;;;;9.10;7.60;;;;;;;-147.86;100.00;48369.01;105683;1254;61285;-44
2024/04/11 03:01:02;;;;;;;14.30;9.30;;;;;;;-147.86;100.00;48631.32;105696;1254;61253;-43
2024/04/11 03:03:32;;;;;;;11.80;8.30;;;;;;;-147.86;100.00;48897.58;105685;1253;74575;-46
2024/04/11 03:06:07;;;;;;;14.30;8.30;;;;;;;-147.86;100.00;49174.05;105718;1254;65517;-45
2024/04/11 03:08:34;;;;;;;18.20;7.90;;;;;;;-147.86;100.00;49438.78;105683;1257;72538;-49
2024/04/11 03:11:01;;;;;;;14.60;7.60;;;;;;;-147.86;100.00;49846.28;105666;1254;61313;-47
2024/04/11 03:13:28;;;;;;;16.10;7.20;;;;;;;-147.86;100.00;50196.57;105668;1254;61253;-45
2024/04/11 03:15:59;;;;;;;24.00;7.40;;;;;;;-147.86;100.00;50570.02;105709;1257;74611;-45
2024/04/11 03:18:27;;;;;;;17.40;8.20;;;;;;;-147.86;100.00;50858.38;105691;1254;64739;-49
2024/04/11 03:20:58;;;;;;;13.10;6.60;;;;;;;-147.86;100.00;51209.14;105642;1254;72630;-48
2024/04/11 03:23:27;;;;;;;17.10;7.30;;;;;;;-147.86;100.00;51513.24;105674;1254;61284;-46
2024/04/11 03:25:53;;;;;;;22.10;7.20;;;;;;;-147.86;100.00;51892.71;105701;1257;61216;-47
2024/04/11 03:28:21;;;;;;;21.50;8.10;;;;;;;-147.86;100.00;52214.91;105619;1253;74664;-47
2024/04/11 03:30:54;;;;;;;9.70;6.70;;;;;;;-147.86;100.00;52498.29;105712;1254;65285;-44
2024/04/11 03:33:21;;;;;;;13.70;7.70;;;;;;;-147.86;100.00;52689.05;105685;1254;72518;-46
2024/04/11 03:36:10;;;;;;;10.30;7.00;;;;;;;-147.86;100.00;53016.81;105683;1254;61913;-43
2024/04/11 03:38:37;;;;;;;12.70;6.70;;;;;;;-147.86;100.00;53041.96;105689;1254;61244;-45
2024/04/11 03:41:07;;;;;;;12.40;6.90;;;;;;;-147.86;100.00;53541.30;105660;1254;74654;-46
2024/04/11 03:43:34;;;;;;;9.40;7.50;;;;;;;-147.86;100.00;53805.53;105702;1254;64009;-46
2024/04/11 03:46:10;;;;;;;12.40;7.90;;;;;;;-147.86;100.00;54037.19;105689;1254;72441;-47
2024/04/11 03:48:38;;;;;;;10.90;7.20;;;;;;;-147.86;100.00;54197.00;105706;1257;61918;-46
2024/04/11 03:51:15;;;;;;;13.40;7.50;;;;;;;-147.86;100.00;54434.18;105704;1254;61279;-48
2024/04/11 03:53:42;;;;;;;10.30;7.40;;;;;;;-147.86;100.00;54556.31;105766;1254;74718;-48
2024/04/11 03:56:09;;;;;;;12.20;7.40;;;;;;;-147.86;100.00;54882.26;105715;1254;65374;-45
2024/04/11 03:58:37;;;;;;;16.90;7.60;;;;;;;-147.86;100.00;55147.37;105684;1254;72637;-47
2024/04/11 04:01:05;;;;;;;10.00;6.80;;;;;;;-147.86;100.00;55394.81;105694;1254;61206;-48
2024/04/11 04:03:36;;;;;;;10.70;7.20;;;;;;;-147.86;100.00;55628.14;105674;1254;61227;-47
2024/04/11 04:06:04;;;;;;;9.80;6.80;;;;;;;-147.86;100.00;55845.37;105668;1257;75102;-46
2024/04/11 04:08:33;;;;;;;7.80;6.90;;;;;;;-147.86;100.00;56125.86;105698;1259;64330;-47
2024/04/11 04:11:00;;;;;;;21.30;7.50;;;;;;;-147.86;100.00;56434.26;105693;1254;72599;-44
2024/04/11 04:13:27;;;;;;;12.90;7.90;;;;;;;-147.86;100.00;56768.63;105660;1254;61846;-47
2024/04/11 04:15:57;;;;;;;11.50;7.30;;;;;;;-147.86;100.00;57074.32;105711;1254;61327;-44
2024/04/11 04:18:25;;;;;;;9.70;7.30;;;;;;;-147.86;100.00;57357.27;105673;1254;74602;-43
2024/04/11 04:20:56;;;;;;;17.50;7.90;;;;;;;-147.86;100.00;57687.38;105707;1254;65445;-47
2024/04/11 04:23:22;;;;;;;10.80;7.40;;;;;;;-147.86;100.00;57999.45;105654;1255;72625;-48
2024/04/11 04:25:59;;;;;;;13.40;7.10;;;;;;;-147.86;100.00;58319.40;105694;1257;61909;-44
2024/04/11 04:28:30;;;;;;;17.80;7.00;;;;;;;-147.86;100.00;58484.89;105670;1254;61094;-47
2024/04/11 04:31:14;;;;;;;16.30;7.10;;;;;;;-147.86;100.00;58793.48;105715;1257;74693;-46
2024/04/11 04:33:42;;;;;;;18.20;6.90;;;;;;;-147.86;100.00;58901.20;105690;1254;64152;-49
2024/04/11 04:36:11;;;;;;;12.80;7.80;;;;;;;-147.86;100.00;59344.68;105683;1253;71476;-44
2024/04/11 04:38:38;;;;;;;13.20;7.80;;;;;;;-147.86;100.00;59675.74;105716;1258;61339;-49
2024/04/11 04:41:05;;;;;;;10.90;6.50;;;;;;;-147.86;100.00;59963.98;105681;1253;61333;-48
2024/04/11 04:43:32;;;;;;;22.00;7.50;;;;;;;-147.86;100.00;60192.45;105645;1254;74721;-48
2024/04/11 04:46:00;;;;;;;21.00;7.00;;;;;;;-147.86;100.00;60347.79;105732;1257;65506;-48
2024/04/11 04:48:29;;;;;;;14.60;7.70;;;;;;;-147.86;100.00;60463.42;105677;1254;72942;-49
2024/04/11 04:50:56;;;;;;;18.10;7.60;;;;;;;-147.86;100.00;60510.22;105658;1256;61174;-46
2024/04/11 04:53:25;;;;;;;16.70;7.30;;;;;;;-147.86;100.00;60546.40;105974;1257;61661;-46
2024/04/11 04:55:56;;;;;;;14.80;7.20;;;;;;;-147.86;100.00;60382.01;105660;1257;74782;-50
2024/04/11 04:58:23;;;;;;;16.40;7.10;;;;;;;-147.86;100.00;60085.09;105713;1257;64663;-46
2024/04/11 05:00:50;;;;;;;11.90;7.20;;;;;;;-147.86;100.00;59712.70;105714;1254;72499;-48
2024/04/11 05:03:18;;;;;;;18.50;7.90;;;;;;;-147.86;100.00;59089.51;105781;1256;61282;-46
2024/04/11 05:05:48;;;;;;;17.40;8.40;;;;;;;-147.86;100.00;57911.02;105688;1254;61273;-44
2024/04/11 05:08:15;;;;;;;16.80;8.60;;;;;;;-147.86;100.00;55955.77;105676;1254;75756;-47
2024/04/11 05:10:53;;;;;;;20.10;8.20;;;;;;;-147.86;100.00;53068.71;105692;1257;65456;-48
2024/04/11 05:13:26;;;;;;;13.30;8.60;;;;;;;-147.86;100.00;47602.34;105646;1254;72724;-47
2024/04/11 05:15:57;;;;;;;20.30;8.90;;;;;;;-147.86;100.00;39519.91;105694;1254;61237;-51
2024/04/11 05:18:24;;;;;;;16.50;9.20;;;;;;;-147.86;100.00;26309.29;105682;1255;61173;-47
2024/04/11 05:20:53;;;;;;;20.10;9.30;;;;;;;-147.86;100.00;9681.31;105696;1257;74568;-48
2024/04/11 05:23:26;;;;;;;14.30;8.60;;;;;;;-147.86;100.00;-8077.25;105717;1254;64641;-50
2024/04/11 05:25:53;;;;;;;15.40;9.50;;;;;;;-147.86;100.00;-17245.80;105715;1254;71595;-45
2024/04/11 05:28:20;;;;;;;20.60;9.30;;;;;;;-147.86;100.00;-17609.17;105702;1257;61245;-49
2024/04/11 05:30:48;;;;;;;15.50;9.50;;;;;;;-147.86;100.00;-17609.17;105770;1254;61263;-48
2024/04/11 05:33:16;;;;;;;18.10;9.40;;;;;;;-147.86;100.00;-17609.17;105663;1254;74791;-48
2024/04/11 05:35:43;;;;;;;20.20;9.60;;;;;;;-147.86;100.00;-17609.17;105712;1254;64128;-47
2024/04/11 05:38:10;;;;;;;13.60;9.60;;;;;;;-147.86;100.00;-17609.17;105707;1254;72622;-48
2024/04/11 05:40:38;;;;;;;18.60;9.70;;;;;;;-147.86;100.00;-17609.17;105712;1257;61139;-47
2024/04/11 05:43:07;;;;;;;36.70;10.20;;;;;;;-147.86;100.00;-17609.17;105687;1254;61275;-49
2024/04/11 05:45:37;;;;;;;19.00;10.00;;;;;;;-147.86;100.00;-17609.17;105564;1253;74514;-47
2024/04/11 05:48:07;;;;;;;16.00;9.60;;;;;;;-147.86;100.00;-17609.17;105654;1254;64100;-49
2024/04/11 05:50:38;;;;;;;20.70;10.10;;;;;;;-147.86;100.00;-17609.17;105695;1254;72562;-45
2024/04/11 05:53:08;;;;;;;26.60;10.30;;;;;;;-147.86;100.00;-17609.17;105690;1254;61358;-50
2024/04/11 05:55:35;;;;;;;19.80;9.60;;;;;;;-147.86;100.00;-17609.17;105708;1254;61244;-51
2024/04/11 05:58:02;;;;;;;25.50;10.10;;;;;;;-147.86;100.00;-17609.17;105691;1254;75724;-48
2024/04/11 06:00:29;;;;;;;20.70;10.10;;;;;;;-147.86;100.00;-17609.17;105662;1254;65916;-52
2024/04/11 06:02:56;;;;;;;25.20;10.10;;;;;;;-147.86;100.00;-17609.17;105680;1254;72476;-49
2024/04/11 06:05:24;;;;;;;24.90;10.10;;;;;;;-147.86;100.00;-17609.17;105708;1254;61743;-51
2024/04/11 06:07:51;;;;;;;27.10;10.30;;;;;;;-147.86;100.00;-17609.17;105690;1254;61346;-50
2024/04/11 06:10:20;;;;;;;26.20;10.80;;;;;;;-147.86;100.00;-17609.17;105617;1253;76012;-51
2024/04/11 06:12:47;;;;;;;28.40;11.10;;;;;;;-147.86;100.00;-17609.17;105680;1257;65801;-53
2024/04/11 06:15:14;;;;;;;29.60;10.90;;;;;;;-147.86;100.00;-17609.17;105707;1254;73768;-48
2024/04/11 06:17:41;;;;;;;27.90;10.50;;;;;;;-147.86;100.00;-17609.17;105724;1257;61141;-49
2024/04/11 06:20:15;;;;;;;25.40;10.20;;;;;;;-147.86;100.00;-17609.17;105663;1254;61225;-51
2024/04/11 06:22:49;;;;;;;23.10;11.10;;;;;;;-147.86;100.00;-17609.17;105467;1254;346845;-49
2024/04/11 06:27:44;;;;;;;19.90;10.80;;;;;;;-147.86;100.00;-17609.17;102605;1289;604295;-47
2024/04/11 06:30:19;;;;;;;34.30;11.70;;;;;;;-147.86;100.00;-17609.17;104870;1267;61823;-48
2024/04/11 06:32:47;;;;;;;29.30;11.60;;;;;;;-147.86;100.00;-17609.17;104926;1268;60337;-45
2024/04/11 06:35:15;;;;;;;32.70;11.20;;;;;;;-147.86;100.00;-17609.17;104878;1270;74243;-46
2024/04/11 06:37:45;;;;;;;26.10;11.10;;;;;;;-147.86;100.00;-17064.90;104855;1270;66135;-47
2024/04/11 06:40:12;;;;;;;25.60;10.50;;;;;;;-147.86;100.00;-14201.33;104782;1270;240330;-46
2024/04/11 06:42:46;;;;;;;26.80;11.80;;;;;;;-147.86;100.00;-8072.65;105175;1269;61897;-47
2024/04/11 06:45:23;;;;;;;36.00;11.80;;;;;;;-147.86;100.00;-5945.24;105170;1268;59602;-45
2024/04/11 06:47:50;;;;;;;35.70;12.50;;;;;;;-147.86;100.00;-2429.14;105132;1270;74397;-47
2024/04/11 06:50:20;;;;;;;30.80;11.90;;;;;;;-147.86;100.00;8484.95;105605;1262;65780;-50
2024/04/11 06:52:48;;;;;;;38.80;12.90;;;;;;;-147.86;100.00;16789.26;105606;1261;73999;-45
2024/04/11 06:55:14;;;;;;;30.10;12.20;;;;;;;-147.86;100.00;23013.16;105658;1260;61516;-46
2024/04/11 06:57:43;;;;;;;37.30;12.20;;;;;;;-147.86;100.00;27888.34;105601;1258;60989;-51
2024/04/11 07:02:57;;;;;;;29.20;12.80;;;;;;;-147.86;98.73;34428.76;105548;1262;67078;-49
2024/04/11 07:05:25;;;;;;;28.90;12.00;;;;;;;-147.86;97.43;37565.76;105625;1264;72814;-51
2024/04/11 07:07:55;;;;;;;26.30;11.90;;;;;;;-147.86;96.72;39538.09;105654;1261;61388;-47
2024/04/11 07:10:26;;;;;;;24.90;10.70;;;;;;;-147.86;96.00;41046.09;105647;1257;61482;-47
2024/04/11 07:12:53;;;;;;;25.00;11.20;;;;;;;-147.86;94.98;41766.66;105662;1260;75204;-49
2024/04/11 07:15:23;;;;;;;24.90;10.80;;;;;;;-147.86;94.19;42945.04;105671;1261;65192;-47
2024/04/11 07:17:58;;;;;;;46.80;11.10;;;;;;;-147.86;92.67;43773.26;105649;1258;73846;-53
2024/04/11 07:20:35;;;;;;;53.20;12.70;;;;;;;-147.86;92.31;46406.30;105638;1261;61590;-46
2024/04/11 07:23:04;;;;;;;26.00;10.60;;;;;;;-147.86;90.51;47100.40;105637;1258;61561;-48
2024/04/11 07:25:32;;;;;;;63.10;12.30;;;;;;;-147.86;89.09;47665.27;105650;1260;75418;-51
2024/04/11 07:28:00;;;;;;;27.40;10.30;;;;;;;-147.86;87.18;48266.27;105700;1266;65936;-47
2024/04/11 07:30:29;;;;;;;60.10;11.60;;;;;;;-147.86;83.92;48641.51;105627;1258;74240;-47
2024/04/11 07:33:01;;;;;;;23.30;9.50;;;;;;;-147.86;82.67;49034.82;105622;1260;61724;-47
2024/04/11 07:35:30;;;;;;;51.60;11.40;;;;;;;-147.86;83.79;49290.52;105645;1258;60451;-44
2024/04/11 07:37:57;;;;;;;54.20;10.90;;;;;;;-147.86;82.04;49405.82;105622;1259;74906;-47
2024/04/11 07:40:34;;;;;;;36.40;10.10;;;;;;;-147.86;81.18;49519.17;105623;1260;66927;-51
2024/04/11 07:43:09;;;;;;;54.30;12.10;;;;;;;-147.86;77.63;49489.36;105625;1258;71820;-48
2024/04/11 07:45:36;;;;;;;28.40;9.30;;;;;;;-147.86;75.66;49454.84;105584;1260;61635;-48
2024/04/11 07:48:04;;;;;;;50.40;11.20;;;;;;;-147.86;77.29;49519.16;105599;1257;61518;-48
2024/04/11 07:50:37;;;;;;;37.30;10.10;;;;;;;-147.86;75.22;49487.00;105597;1257;75275;-55
2024/04/11 07:53:14;;;;;;;25.90;9.20;;;;;;;-147.86;73.84;49452.10;105632;1261;66180;-51
2024/04/11 07:55:44;;;;;;;87.60;12.90;;;;;;;-147.86;70.65;49404.25;105637;1261;72879;-52
2024/04/11 07:58:11;;;;;;;99.90;13.70;;;;;;;-147.86;71.42;49404.64;105615;1258;61684;-48
2024/04/11 08:00:47;;;;;;;73.70;12.90;;;;;;;-147.86;70.57;49399.54;105619;1258;61695;-49
2024/04/11 08:03:16;;;;;;;42.40;9.70;;;;;;;-147.86;67.55;49374.05;105579;1258;75145;-45
2024/04/11 08:05:44;;;;;;;31.00;9.10;;;;;;;-147.86;64.74;49321.89;105617;1260;66342;-49
2024/04/11 08:08:19;;;;;;;24.00;8.80;;;;;;;-147.86;63.28;49308.16;105713;1257;73853;-51
2024/04/11 08:10:50;;;;;;;32.30;9.00;;;;;;;-147.86;63.68;49293.66;105616;1260;61401;-49
2024/04/11 08:13:22;;;;;;;33.30;9.00;;;;;;;-147.86;62.12;49293.26;105675;1257;61628;-52
2024/04/11 08:15:49;;;;;;;19.40;8.00;;;;;;;-147.86;61.52;49348.16;105659;1260;75267;-49
2024/04/11 08:18:17;;;;;;;25.90;7.80;;;;;;;-147.86;56.34;49307.38;105641;1260;65788;-52
2024/04/11 08:20:45;;;;;;;18.20;6.60;;;;;;;-147.86;58.13;49360.32;105603;1257;72931;-49
2024/04/11 08:23:12;;;;;;;15.70;6.90;;;;;;;-147.86;55.12;49368.17;105717;1260;61488;-50
2024/04/11 08:25:52;;;;;;;12.50;6.90;;;;;;;-147.86;52.95;49356.01;105587;1258;60536;-45
2024/04/11 08:28:20;;;;;;;23.80;7.00;;;;;;;-147.86;49.32;49271.30;105685;1260;72896;-54
2024/04/11 08:30:51;;;;;;;22.20;7.50;;;;;;;-147.86;49.53;49283.06;105644;1260;62742;-52
2024/04/11 08:33:20;;;;;;;24.00;7.20;;;;;;;-147.86;46.99;49227.38;105648;1258;74095;-51
2024/04/11 08:35:49;;;;;;;25.10;7.80;;;;;;;-147.86;45.60;49216.39;105616;1260;61713;-49
2024/04/11 08:38:18;;;;;;;23.30;7.30;;;;;;;-147.86;43.66;49122.27;105609;1257;61518;-53
2024/04/11 08:40:45;;;;;;;28.40;6.90;;;;;;;-147.86;43.69;49035.21;105614;1257;75225;-48
2024/04/11 08:43:12;;;;;;;17.40;7.40;;;;;;;-147.86;44.23;48986.20;105640;1260;65918;-53
2024/04/11 08:45:41;;;;;;;21.00;6.50;;;;;;;-147.86;43.58;48971.29;105588;1257;72815;-49
2024/04/11 08:48:08;;;;;;;14.80;7.30;;;;;;;-147.86;42.67;48944.24;105622;1260;61388;-49
2024/04/11 08:50:35;;;;;;;16.30;6.90;;;;;;;-147.86;43.59;48930.51;105577;1257;61945;-55
2024/04/11 08:53:03;;;;;;;18.20;6.50;;;;;;;-147.86;43.27;48921.49;105440;1260;74993;-48
2024/04/11 08:55:30;;;;;;;13.20;6.50;;;;;;;-147.86;42.19;48932.47;105641;1260;65061;-51
2024/04/11 08:57:58;;;;;;;18.30;6.40;;;;;;;-147.86;39.84;48910.12;105579;1257;73660;-50
2024/04/11 09:00:25;;;;;;;15.10;6.60;;;;;;;-147.86;40.06;48885.02;105619;1260;61516;-46
2024/04/11 09:02:52;;;;;;;18.20;7.10;;;;;;;-147.86;38.91;48813.66;105432;1258;61585;-48
2024/04/11 09:05:22;;;;;;;17.60;6.10;;;;;;;-147.86;39.02;48785.81;105639;1261;75070;-51
2024/04/11 09:07:50;;;;;;;18.60;6.30;;;;;;;-147.86;38.47;48757.97;105665;1260;63855;-48
2024/04/11 09:10:19;;;;;;;19.30;6.40;;;;;;;-147.86;38.79;48773.66;105640;1258;73818;-49
2024/04/11 09:12:47;;;;;;;13.70;6.00;;;;;;;-147.86;37.25;48687.00;105631;1261;60575;-50
2024/04/11 09:15:18;;;;;;;19.40;5.60;;;;;;;-147.86;36.51;48612.10;105633;1257;61460;-49
2024/04/11 09:17:45;;;;;;;12.90;5.70;;;;;;;-147.86;35.44;48561.52;105659;1257;74283;-51
2024/04/11 09:20:15;;;;;;;16.90;6.40;;;;;;;-147.86;35.41;48569.76;105624;1257;66025;-48
2024/04/11 09:22:55;;;;;;;14.00;5.60;;;;;;;-147.86;34.92;48515.25;105593;1257;74025;-52
2024/04/11 09:25:34;;;;;;;17.10;5.20;;;;;;;-147.86;35.00;48485.45;105608;1261;61533;-51
2024/04/11 09:28:01;;;;;;;23.40;6.20;;;;;;;-147.86;34.63;48463.11;105617;1257;60431;-49
2024/04/11 09:30:30;;;;;;;24.00;6.50;;;;;;;-147.86;34.27;48448.59;105657;1258;75251;-47
2024/04/11 09:32:59;;;;;;;11.50;5.00;;;;;;;-147.86;33.58;48429.38;105610;1261;66906;-46
2024/04/11 09:35:26;;;;;;;9.20;5.20;;;;;;;-147.86;33.21;48401.94;105506;1257;72846;-48
2024/04/11 09:37:54;;;;;;;14.10;4.80;;;;;;;-147.86;32.79;48334.10;105451;1262;60440;-48
2024/04/11 09:40:26;;;;;;;12.20;5.20;;;;;;;-147.86;33.02;48314.10;105516;1256;61603;-51
2024/04/11 09:43:03;;;;;;;11.50;5.10;;;;;;;-147.86;32.91;48319.21;105574;1257;74206;-52
2024/04/11 09:45:35;;;;;;;19.40;5.40;;;;;;;-147.86;32.05;48285.88;105666;1260;66083;-49
2024/04/11 09:48:03;;;;;;;13.00;4.60;;;;;;;-147.86;31.68;48249.02;105599;1258;71510;-52
2024/04/11 09:50:30;;;;;;;14.20;4.70;;;;;;;-147.86;31.68;48232.16;105628;1260;61758;-48
2024/04/11 09:52:59;;;;;;;13.10;4.70;;;;;;;-147.86;31.76;48195.70;105557;1257;61712;-47
2024/04/11 09:55:33;;;;;;;34.20;6.20;;;;;;;-147.86;30.95;48143.55;105623;1260;72829;-48
2024/04/11 09:58:00;;;;;;;20.70;4.70;;;;;;;-147.86;30.98;48116.11;105585;1260;65869;-47
2024/04/11 10:03:18;;;;;;;11.00;4.20;;;;;;;-147.86;30.56;48077.69;105677;1257;60491;-49
2024/04/11 10:05:46;;;;;;;11.40;4.30;;;;;;;-147.86;30.81;48072.20;105478;1262;61542;-50
2024/04/11 10:08:33;;;;;;;21.60;4.60;;;;;;;-147.86;30.84;48078.08;105619;1261;75217;-50
2024/04/11 10:11:04;;;;;;;22.50;5.90;;;;;;;-147.86;30.90;48045.93;105614;1260;64459;-51
2024/04/11 10:13:39;;;;;;;21.50;4.60;;;;;;;-147.86;31.16;48042.01;105653;1258;71926;-46
2024/04/11 10:16:22;;;;;;;21.90;5.20;;;;;;;-147.86;31.46;48065.54;105612;1260;61405;-46
2024/04/11 10:19:04;;;;;;;15.00;4.70;;;;;;;-147.86;31.42;48078.47;105985;1254;61777;-43
2024/04/11 10:21:33;;;;;;;9.40;4.40;;;;;;;-147.86;31.16;48109.84;105914;1257;75026;-50
2024/04/11 10:24:15;;;;;;;9.90;4.60;;;;;;;-147.86;31.17;48098.07;105891;1257;66142;-48
2024/04/11 10:26:47;;;;;;;18.10;4.80;;;;;;;-147.86;31.69;48087.49;105907;1254;73975;-49
2024/04/11 10:29:18;;;;;;;24.80;4.70;;;;;;;-147.86;31.47;48049.85;105964;1256;61810;-50
2024/04/11 10:31:52;;;;;;;38.90;5.80;;;;;;;-147.86;31.07;48005.55;106038;1256;60463;-51
2024/04/11 10:34:25;;;;;;;13.70;4.00;;;;;;;-147.86;31.09;47996.93;105877;1256;75206;-45
2024/04/11 10:37:02;;;;;;;15.30;3.90;;;;;;;-147.86;31.01;47953.80;105942;1257;66127;-49
2024/04/11 10:39:35;;;;;;;66.90;7.80;;;;;;;-147.86;31.52;47991.04;105905;1254;74070;-45
2024/04/11 10:42:07;;;;;;;14.50;4.00;;;;;;;-147.86;30.97;47978.89;105854;1257;61633;-53
2024/04/11 10:44:35;;;;;;;8.30;3.40;;;;;;;-147.86;30.96;47972.62;105882;1254;61633;-46
2024/04/11 10:47:09;;;;;;;9.40;3.30;;;;;;;-147.86;30.99;47970.26;105859;1254;73565;-52
2024/04/11 10:49:41;;;;;;;9.80;3.20;;;;;;;-147.86;30.57;47931.45;105928;1256;66782;-48
2024/04/11 10:52:12;;;;;;;19.70;3.50;;;;;;;-147.86;30.64;47927.92;105882;1253;73876;-47
2024/04/11 10:54:39;;;;;;;8.70;2.80;;;;;;;-147.86;30.76;47947.91;105897;1257;61637;-49
2024/04/11 10:57:12;;;;;;;22.00;3.70;;;;;;;-147.86;30.49;47927.53;105926;1254;61497;-48
2024/04/11 10:59:50;;;;;;;16.50;3.70;;;;;;;-147.86;30.29;47936.94;105833;1254;76064;-45
2024/04/11 11:02:23;;;;;;;13.20;3.30;;;;;;;-147.86;30.09;47914.59;105912;1254;65809;-46
2024/04/11 11:04:50;;;;;;;10.90;2.90;;;;;;;-147.86;29.82;47900.88;105882;1254;73200;-47
2024/04/11 11:07:23;;;;;;;17.60;3.30;;;;;;;-147.86;29.90;47897.74;105828;1253;61740;-50
2024/04/11 11:09:51;;;;;;;18.60;3.30;;;;;;;-147.86;29.28;47850.70;105843;1256;61177;-54
2024/04/11 11:12:19;;;;;;;29.40;3.30;;;;;;;-147.86;29.55;47855.39;105702;1252;74970;-47